createdAt,value
2022-12-23T00:01:36.402Z,96218.38
2022-12-23T00:03:39.466Z,96231.59
2022-12-23T00:05:42.168Z,96229.41
2022-12-23T00:07:45.405Z,96232.09
2022-12-23T00:09:47.950Z,96234.34
2022-12-23T00:12:08.457Z,96237.50
2022-12-23T00:14:28.678Z,96240.59
2022-12-23T00:16:31.515Z,96230.75
2022-12-23T00:18:36.284Z,96233.34
2022-12-23T00:20:38.914Z,96223.25
2022-12-23T00:22:59.293Z,96225.44
2022-12-23T00:25:01.858Z,96229.50
2022-12-23T00:27:04.447Z,96221.50
2022-12-23T00:29:07.030Z,96221.75
2022-12-23T00:31:10.182Z,96217.13
2022-12-23T00:33:12.822Z,96216.53
2022-12-23T00:35:19.909Z,96215.53
2022-12-23T00:37:22.477Z,96218.03
2022-12-23T00:39:42.627Z,96222.44
2022-12-23T00:42:03.265Z,96226.78
2022-12-23T00:44:06.284Z,96220.50
2022-12-23T00:46:08.931Z,96226.78
2022-12-23T00:48:29.087Z,96226.44
2022-12-23T00:50:34.590Z,96224.41
2022-12-23T00:52:37.167Z,96225.25
2022-12-23T00:54:40.178Z,96231.81
2022-12-23T00:56:42.741Z,96236.84
2022-12-23T00:58:45.288Z,96229.47
2022-12-23T01:01:06.400Z,96226.59
2022-12-23T01:03:30.269Z,96235.75
2022-12-23T01:05:39.964Z,96232.00
2022-12-23T01:07:42.730Z,96240.88
2022-12-23T01:09:45.468Z,96236.69
2022-12-23T01:11:48.014Z,96251.59
2022-12-23T01:13:50.583Z,96249.31
2022-12-23T01:15:53.137Z,96255.28
2022-12-23T01:17:55.750Z,96263.63
2022-12-23T01:19:58.304Z,96264.56
2022-12-23T01:22:02.202Z,96263.13
2022-12-23T01:24:05.267Z,96278.50
2022-12-23T01:26:09.337Z,96274.72
2022-12-23T01:28:11.935Z,96276.06
2022-12-23T01:30:14.879Z,96281.38
2022-12-23T01:32:17.459Z,96276.34
2022-12-23T01:34:20.232Z,96278.69
2022-12-23T01:36:23.512Z,96289.88
2022-12-23T01:38:27.428Z,96285.34
2022-12-23T01:40:35.686Z,96287.53
2022-12-23T01:42:43.467Z,96282.81
2022-12-23T01:44:52.199Z,96287.09
2022-12-23T01:46:54.752Z,96301.56
2022-12-23T01:48:58.160Z,96291.13
2022-12-23T01:51:05.396Z,96289.56
2022-12-23T01:53:15.639Z,96293.75
2022-12-23T01:55:23.329Z,96292.22
2022-12-23T01:57:26.118Z,96290.91
2022-12-23T01:59:46.520Z,96295.44
2022-12-23T02:02:06.662Z,96299.91
2022-12-23T02:04:14.146Z,96297.69
2022-12-23T02:06:39.451Z,96297.69
2022-12-23T02:08:56.148Z,96303.41
2022-12-23T02:11:17.665Z,96309.97
2022-12-23T02:13:32.200Z,96314.03
2022-12-23T02:15:58.317Z,96314.44
2022-12-23T02:18:19.958Z,96320.31
2022-12-23T02:21:00.425Z,96335.06
2022-12-23T02:23:32.746Z,96337.19
2022-12-23T02:25:51.780Z,96333.97
2022-12-23T02:28:20.016Z,96334.72
2022-12-23T02:30:31.009Z,96344.25
2022-12-23T02:32:50.147Z,96336.06
2022-12-23T02:34:56.942Z,96344.84
2022-12-23T02:37:06.824Z,96338.75
2022-12-23T02:39:16.192Z,96344.84
2022-12-23T02:41:24.064Z,96343.06
2022-12-23T02:43:35.236Z,96349.88
2022-12-23T02:45:46.475Z,96341.56
2022-12-23T02:47:53.149Z,96339.34
2022-12-23T02:49:59.986Z,96346.59
2022-12-23T02:52:06.208Z,96348.88
2022-12-23T02:54:12.265Z,96342.22
2022-12-23T02:56:18.187Z,96349.38
2022-12-23T02:58:24.579Z,96349.38
2022-12-23T03:00:27.647Z,96357.13
2022-12-23T03:02:34.291Z,96356.34
2022-12-23T03:04:38.318Z,96363.28
2022-12-23T03:06:43.102Z,96358.38
2022-12-23T03:08:46.455Z,96368.72
2022-12-23T03:11:02.822Z,96373.53
2022-12-23T03:13:15.052Z,96366.38
2022-12-23T03:15:25.613Z,96367.22
2022-12-23T03:17:48.285Z,96374.88
2022-12-23T03:19:55.982Z,96364.94
2022-12-23T03:22:09.989Z,96363.19
2022-12-23T03:24:23.220Z,96373.09
2022-12-23T03:26:31.206Z,96374.03
2022-12-23T03:28:40.389Z,96373.44
2022-12-23T03:30:47.694Z,96380.78
2022-12-23T03:32:55.870Z,96379.06
2022-12-23T03:35:02.142Z,96383.53
2022-12-23T03:37:08.942Z,96391.63
2022-12-23T03:39:15.404Z,96388.66
2022-12-23T03:41:24.074Z,96390.50
2022-12-23T03:43:31.591Z,96393.53
2022-12-23T03:45:41.062Z,96392.28
2022-12-23T03:47:48.543Z,96401.47
2022-12-23T03:49:56.556Z,96395.31
2022-12-23T03:52:04.293Z,96409.69
2022-12-23T03:54:12.921Z,96408.00
2022-12-23T03:56:20.075Z,96416.91
2022-12-23T03:58:32.009Z,96412.63
2022-12-23T04:00:38.279Z,96419.38
2022-12-23T04:02:47.731Z,96414.28
2022-12-23T04:05:06.629Z,96421.94
2022-12-23T04:07:16.599Z,96419.81
2022-12-23T04:09:22.293Z,96418.78
2022-12-23T04:11:25.491Z,96433.28
2022-12-23T04:13:28.419Z,96421.38
2022-12-23T04:15:31.710Z,96427.84
2022-12-23T04:17:34.661Z,96418.44
2022-12-23T04:19:37.270Z,96421.97
2022-12-23T04:21:41.345Z,96419.03
2022-12-23T04:23:43.915Z,96424.09
2022-12-23T04:25:46.490Z,96429.72
2022-12-23T04:27:49.086Z,96429.88
2022-12-23T04:29:51.623Z,96430.31
2022-12-23T04:31:54.195Z,96428.69
2022-12-23T04:33:56.806Z,96427.94
2022-12-23T04:36:02.944Z,96432.41
2022-12-23T04:38:06.962Z,96419.38
2022-12-23T04:40:10.238Z,96419.28
2022-12-23T04:42:12.859Z,96426.25
2022-12-23T04:44:15.584Z,96431.22
2022-12-23T04:46:18.211Z,96431.00
2022-12-23T04:48:20.819Z,96437.22
2022-12-23T04:50:23.383Z,96438.22
2022-12-23T04:52:26.024Z,96444.28
2022-12-23T04:54:29.929Z,96441.53
2022-12-23T04:56:32.584Z,96449.41
2022-12-23T04:58:35.165Z,96447.59
2022-12-23T05:00:40.084Z,96459.56
2022-12-23T05:02:42.871Z,96446.00
2022-12-23T05:04:45.587Z,96455.00
2022-12-23T05:06:49.969Z,96449.38
2022-12-23T05:08:52.578Z,96450.56
2022-12-23T05:10:56.796Z,96444.16
2022-12-23T05:12:59.440Z,96443.81
2022-12-23T05:15:01.982Z,96445.00
2022-12-23T05:17:07.775Z,96452.84
2022-12-23T05:19:11.536Z,96453.50
2022-12-23T05:21:14.115Z,96464.47
2022-12-23T05:23:16.684Z,96463.69
2022-12-23T05:25:19.281Z,96463.03
2022-12-23T05:27:23.199Z,96465.22
2022-12-23T05:29:25.779Z,96455.13
2022-12-23T05:31:28.489Z,96465.78
2022-12-23T05:33:31.414Z,96461.78
2022-12-23T05:35:34.083Z,96458.31
2022-12-23T05:37:36.721Z,96458.13
2022-12-23T05:39:39.389Z,96447.19
2022-12-23T05:41:41.967Z,96449.13
2022-12-23T05:43:45.872Z,96453.66
2022-12-23T05:45:48.850Z,96461.41
2022-12-23T05:47:51.505Z,96458.13
2022-12-23T05:49:54.610Z,96464.88
2022-12-23T05:51:57.261Z,96464.88
2022-12-23T05:53:59.872Z,96469.81
2022-12-23T05:56:05.406Z,96473.19
2022-12-23T05:58:08.028Z,96472.34
2022-12-23T06:00:13.799Z,96464.53
2022-12-23T06:02:16.839Z,96471.00
2022-12-23T06:04:20.296Z,96480.38
2022-12-23T06:06:22.981Z,96480.19
2022-12-23T06:08:25.560Z,96479.59
2022-12-23T06:10:28.097Z,96471.88
2022-12-23T06:12:30.677Z,96476.31
2022-12-23T06:14:33.409Z,96467.16
2022-12-23T06:16:37.389Z,96466.16
2022-12-23T06:18:39.981Z,96468.84
2022-12-23T06:20:42.578Z,96474.13
2022-12-23T06:22:45.133Z,96458.41
2022-12-23T06:24:48.046Z,96466.38
2022-12-23T06:26:56.511Z,96475.47
2022-12-23T06:28:59.753Z,96473.72
2022-12-23T06:31:02.309Z,96478.34
2022-12-23T06:33:06.232Z,96474.06
2022-12-23T06:35:09.871Z,96473.47
2022-12-23T06:37:12.647Z,96479.78
2022-12-23T06:39:15.435Z,96461.09
2022-12-23T06:41:18.009Z,96465.47
2022-12-23T06:43:20.654Z,96461.56
2022-12-23T06:45:23.298Z,96467.66
2022-12-23T06:47:25.900Z,96464.69
2022-12-23T06:49:29.849Z,96459.13
2022-12-23T06:51:32.422Z,96462.91
2022-12-23T06:53:34.979Z,96464.75
2022-12-23T06:55:37.520Z,96474.16
2022-12-23T06:57:40.083Z,96469.19
2022-12-23T06:59:42.655Z,96477.97
2022-12-23T07:01:45.699Z,96470.13
2022-12-23T07:03:50.637Z,96479.97
2022-12-23T07:05:55.329Z,96480.78
2022-12-23T07:07:58.787Z,96480.03
2022-12-23T07:10:01.438Z,96487.94
2022-12-23T07:12:04.573Z,96487.94
2022-12-23T07:14:07.155Z,96499.91
2022-12-23T07:16:10.537Z,96499.03
2022-12-23T07:18:13.144Z,96497.28
2022-12-23T07:20:16.806Z,96502.41
2022-12-23T07:22:21.721Z,96495.44
2022-12-23T07:24:24.382Z,96501.53
2022-12-23T07:26:26.936Z,96498.97
2022-12-23T07:28:29.471Z,96495.38
2022-12-23T07:30:32.028Z,96490.16
2022-12-23T07:32:34.648Z,96490.06
2022-12-23T07:34:37.240Z,96492.06
2022-12-23T07:36:39.795Z,96501.53
2022-12-23T07:38:43.649Z,96503.28
2022-12-23T07:40:49.630Z,96507.63
2022-12-23T07:42:55.886Z,96509.19
2022-12-23T07:44:58.429Z,96502.50
2022-12-23T07:47:01.224Z,96512.00
2022-12-23T07:49:03.794Z,96514.69
2022-12-23T07:51:06.770Z,96513.72
2022-12-23T07:53:09.474Z,96513.72
2022-12-23T07:55:13.677Z,96511.53
2022-12-23T07:57:16.216Z,96510.75
2022-12-23T07:59:18.869Z,96515.16
2022-12-23T08:01:22.062Z,96522.22
2022-12-23T08:03:24.754Z,96512.63
2022-12-23T08:05:27.421Z,96517.44
2022-12-23T08:07:30.100Z,96518.47
2022-12-23T08:09:32.704Z,96518.50
2022-12-23T08:11:36.566Z,96526.97
2022-12-23T08:13:41.063Z,96532.75
2022-12-23T08:15:43.596Z,96535.66
2022-12-23T08:17:46.200Z,96532.44
2022-12-23T08:19:48.770Z,96544.66
2022-12-23T08:21:51.335Z,96540.31
2022-12-23T08:23:53.986Z,96544.00
2022-12-23T08:26:01.067Z,96545.88
2022-12-23T08:28:05.292Z,96545.53
2022-12-23T08:30:08.984Z,96541.47
2022-12-23T08:32:11.875Z,96542.09
2022-12-23T08:34:14.445Z,96538.72
2022-12-23T08:36:22.649Z,96540.06
2022-12-23T08:38:26.011Z,96539.75
2022-12-23T08:40:28.812Z,96537.41
2022-12-23T08:42:31.425Z,96541.25
2022-12-23T08:44:35.495Z,96531.63
2022-12-23T08:46:38.921Z,96537.88
2022-12-23T08:48:47.081Z,96537.53
2022-12-23T08:50:51.855Z,96531.06
2022-12-23T08:52:54.390Z,96535.47
2022-12-23T08:54:57.029Z,96531.16
2022-12-23T08:56:59.618Z,96534.16
2022-12-23T08:59:02.950Z,96530.97
2022-12-23T09:01:08.756Z,96528.44
2022-12-23T09:03:11.517Z,96537.81
2022-12-23T09:05:14.207Z,96541.47
2022-12-23T09:07:16.749Z,96539.56
2022-12-23T09:09:19.322Z,96535.59
2022-12-23T09:11:23.925Z,96541.84
2022-12-23T09:13:34.595Z,96537.22
2022-12-23T09:15:42.238Z,96543.97
2022-12-23T09:17:46.217Z,96539.72
2022-12-23T09:19:53.025Z,96549.41
2022-12-23T09:21:56.584Z,96547.63
2022-12-23T09:23:59.245Z,96550.34
2022-12-23T09:26:02.016Z,96550.34
2022-12-23T09:28:04.903Z,96545.28
2022-12-23T09:30:08.615Z,96540.06
2022-12-23T09:32:11.184Z,96536.50
2022-12-23T09:34:15.198Z,96532.88
2022-12-23T09:36:18.382Z,96535.50
2022-12-23T09:38:20.969Z,96532.88
2022-12-23T09:40:23.659Z,96535.34
2022-12-23T09:42:38.937Z,96531.91
2022-12-23T09:44:55.810Z,96531.91
2022-12-23T09:47:03.253Z,96532.75
2022-12-23T09:49:11.244Z,96527.53
2022-12-23T09:51:18.330Z,96521.38
2022-12-23T09:53:23.912Z,96513.53
2022-12-23T09:55:33.255Z,96510.84
2022-12-23T09:57:43.094Z,96509.00
2022-12-23T09:59:59.877Z,96505.53
2022-12-23T10:02:15.671Z,96504.53
2022-12-23T10:04:41.277Z,96499.41
2022-12-23T10:06:52.340Z,96497.63
2022-12-23T10:09:01.359Z,96489.06
2022-12-23T10:11:13.852Z,96489.78
2022-12-23T10:13:26.562Z,96489.75
2022-12-23T10:15:34.293Z,96485.25
2022-12-23T10:17:42.531Z,96488.72
2022-12-23T10:19:47.823Z,96481.81
2022-12-23T10:21:53.764Z,96480.56
2022-12-23T10:23:56.871Z,96480.56
2022-12-23T10:25:59.832Z,96479.44
2022-12-23T10:28:02.398Z,96480.38
2022-12-23T10:30:42.659Z,96475.75
2022-12-23T10:32:50.950Z,96473.91
2022-12-23T10:34:59.669Z,96470.94
2022-12-23T10:37:10.480Z,96467.50
2022-12-23T10:39:25.633Z,96469.19
2022-12-23T10:41:39.005Z,96460.09
2022-12-23T10:43:51.246Z,96458.72
2022-12-23T10:46:03.781Z,96465.13
2022-12-23T10:48:20.318Z,96451.22
2022-12-23T10:50:50.316Z,96460.75
2022-12-23T10:52:58.637Z,96452.94
2022-12-23T10:55:01.225Z,96448.59
2022-12-23T10:57:06.592Z,96445.75
2022-12-23T10:59:15.036Z,96448.16
2022-12-23T11:01:26.456Z,96443.69
2022-12-23T11:03:32.225Z,96437.44
2022-12-23T11:05:35.547Z,96441.75
2022-12-23T11:07:46.266Z,96434.16
2022-12-23T11:09:53.595Z,96429.16
2022-12-23T11:11:59.101Z,96430.59
2022-12-23T11:14:01.669Z,96431.03
2022-12-23T11:16:23.859Z,96434.66
2022-12-23T11:18:26.501Z,96426.47
2022-12-23T11:20:29.698Z,96417.13
2022-12-23T11:22:32.351Z,96410.06
2022-12-23T11:24:41.306Z,96410.28
2022-12-23T11:26:50.468Z,96406.13
2022-12-23T11:28:58.298Z,96402.59
2022-12-23T11:31:08.594Z,96405.53
2022-12-23T11:33:24.076Z,96394.56
2022-12-23T11:35:29.551Z,96391.41
2022-12-23T11:37:37.500Z,96380.72
2022-12-23T11:39:47.694Z,96383.63
2022-12-23T11:41:54.253Z,96379.88
2022-12-23T11:44:01.374Z,96375.78
2022-12-23T11:46:19.657Z,96375.78
2022-12-23T11:48:29.291Z,96372.31
2022-12-23T11:50:35.597Z,96369.81
2022-12-23T11:52:38.463Z,96366.06
2022-12-23T11:54:41.171Z,96364.56
2022-12-23T11:56:44.686Z,96360.44
2022-12-23T11:58:54.319Z,96354.56
2022-12-23T12:01:00.242Z,96358.13
2022-12-23T12:03:05.003Z,96358.31
2022-12-23T12:05:22.842Z,96354.09
2022-12-23T12:07:26.993Z,96344.59
2022-12-23T12:09:31.751Z,96345.25
2022-12-23T12:11:39.304Z,96333.75
2022-12-23T12:13:44.618Z,96338.22
2022-12-23T12:15:57.263Z,96337.47
2022-12-23T12:18:01.978Z,96335.59
2022-12-23T12:20:10.439Z,96331.31
2022-12-23T12:22:17.459Z,96330.38
2022-12-23T12:24:27.055Z,96338.41
2022-12-23T12:26:32.054Z,96324.34
2022-12-23T12:28:39.758Z,96317.06
2022-12-23T12:30:50.222Z,96314.50
2022-12-23T12:32:59.859Z,96317.97
2022-12-23T12:35:06.985Z,96314.44
2022-12-23T12:37:18.906Z,96304.81
2022-12-23T12:39:27.547Z,96303.44
2022-12-23T12:41:35.360Z,96303.34
2022-12-23T12:43:44.480Z,96294.84
2022-12-23T12:45:53.978Z,96300.88
2022-12-23T12:48:18.727Z,96293.88
2022-12-23T12:50:28.042Z,96297.34
2022-12-23T12:52:37.425Z,96295.66
2022-12-23T12:54:45.211Z,96291.75
2022-12-23T12:56:51.239Z,96285.69
2022-12-23T12:58:53.876Z,96279.72
2022-12-23T13:01:07.955Z,96265.78
2022-12-23T13:03:31.111Z,96264.78
2022-12-23T13:05:53.343Z,96260.56
2022-12-23T13:08:08.623Z,96254.78
2022-12-23T13:10:18.810Z,96254.13
2022-12-23T13:12:25.535Z,96243.69
2022-12-23T13:14:35.759Z,96254.13
2022-12-23T13:16:47.484Z,96238.72
2022-12-23T13:18:56.727Z,96239.09
2022-12-23T13:21:06.707Z,96240.22
2022-12-23T13:23:42.281Z,96244.22
2022-12-23T13:25:44.083Z,96234.13
2022-12-23T13:27:56.578Z,96237.94
2022-12-23T13:30:13.826Z,96235.63
2022-12-23T13:32:27.163Z,96234.22
2022-12-23T13:34:41.647Z,96226.81
2022-12-23T13:36:51.426Z,96224.66
2022-12-23T13:39:08.011Z,96224.84
2022-12-23T13:41:19.101Z,96225.13
2022-12-23T13:43:26.080Z,96218.88
2022-12-23T13:45:34.371Z,96217.88
2022-12-23T13:47:47.317Z,96234.97
2022-12-23T13:50:02.990Z,96223.59
2022-12-23T13:52:11.235Z,96224.19
2022-12-23T13:54:23.750Z,96217.97
2022-12-23T13:56:34.495Z,96222.66
2022-12-23T13:58:40.016Z,96226.41
2022-12-23T14:00:42.629Z,96229.31
2022-12-23T14:02:51.703Z,96227.53
2022-12-23T14:05:02.027Z,96230.16
2022-12-23T14:07:17.861Z,96227.44
2022-12-23T14:09:31.273Z,96229.59
2022-12-23T14:11:35.192Z,96235.28
2022-12-23T14:13:43.553Z,96229.97
2022-12-23T14:16:02.648Z,96228.41
2022-12-23T14:18:19.125Z,96230.50
2022-12-23T14:20:32.628Z,96229.13
2022-12-23T14:22:54.452Z,96234.72
2022-12-23T14:25:35.654Z,96232.88
2022-12-23T14:27:50.356Z,96228.47
2022-12-23T14:30:06.090Z,96239.19
2022-12-23T14:32:20.958Z,96229.00
2022-12-23T14:34:30.766Z,96238.09
2022-12-23T14:36:34.746Z,96229.97
2022-12-23T14:38:37.342Z,96221.75
2022-12-23T14:40:55.446Z,96225.16
2022-12-23T14:43:26.596Z,96228.44
2022-12-23T14:45:35.381Z,96228.72
2022-12-23T14:47:40.616Z,96226.72
2022-12-23T14:49:44.816Z,96225.00
2022-12-23T14:51:50.827Z,96213.44
2022-12-23T14:54:15.092Z,96220.19
2022-12-23T14:56:23.802Z,96214.41
2022-12-23T14:58:39.284Z,96225.22
2022-12-23T15:00:48.600Z,96225.00
2022-12-23T15:02:58.231Z,96228.06
2022-12-23T15:05:01.567Z,96236.25
2022-12-23T15:07:08.610Z,96230.66
2022-12-23T15:09:24.660Z,96233.53
2022-12-23T15:11:30.323Z,96226.53
2022-12-23T15:13:34.048Z,96234.09
2022-12-23T15:15:36.719Z,96234.25
2022-12-23T15:17:39.636Z,96242.81
2022-12-23T15:19:46.291Z,96239.53
2022-12-23T15:21:56.520Z,96243.88
2022-12-23T15:24:15.354Z,96252.78
2022-12-23T15:26:18.414Z,96260.56
2022-12-23T15:28:23.614Z,96266.91
2022-12-23T15:30:28.760Z,96271.47
2022-12-23T15:32:31.413Z,96269.81
2022-12-23T15:34:35.136Z,96276.06
2022-12-23T15:36:37.881Z,96277.56
2022-12-23T15:38:40.777Z,96282.31
2022-12-23T15:40:58.830Z,96284.47
2022-12-23T15:43:02.302Z,96293.47
2022-12-23T15:45:31.145Z,96292.03
2022-12-23T15:47:41.733Z,96303.00
2022-12-23T15:49:44.333Z,96307.00
2022-12-23T15:52:10.985Z,96301.88
2022-12-23T15:54:21.583Z,96297.66
2022-12-23T15:56:28.469Z,96281.94
2022-12-23T15:58:34.400Z,96287.16
2022-12-23T16:00:41.267Z,96292.66
2022-12-23T16:03:02.294Z,96288.50
2022-12-23T16:05:07.058Z,96291.53
2022-12-23T16:07:25.046Z,96293.31
2022-12-23T16:09:34.238Z,96299.38
2022-12-23T16:11:50.743Z,96295.81
2022-12-23T16:13:58.977Z,96287.69
2022-12-23T16:16:20.855Z,96291.91
2022-12-23T16:18:26.296Z,96290.56
2022-12-23T16:20:28.957Z,96297.41
2022-12-23T16:22:36.107Z,96290.78
2022-12-23T16:24:39.654Z,96287.06
2022-12-23T16:26:44.092Z,96275.56
2022-12-23T16:28:49.528Z,96276.69
2022-12-23T16:30:54.294Z,96273.69
2022-12-23T16:32:59.581Z,96269.88
2022-12-23T16:35:11.817Z,96280.13
2022-12-23T16:37:14.625Z,96275.19
2022-12-23T16:39:22.548Z,96282.06
2022-12-23T16:41:25.441Z,96286.41
2022-12-23T16:43:29.558Z,96267.44
2022-12-23T16:45:33.683Z,96273.03
2022-12-23T16:47:37.219Z,96283.38
2022-12-23T16:49:40.040Z,96276.19
2022-12-23T16:51:43.261Z,96267.63
2022-12-23T16:53:45.856Z,96276.03
2022-12-23T16:55:55.096Z,96273.75
2022-12-23T16:58:00.978Z,96275.63
2022-12-23T17:00:05.728Z,96267.78
2022-12-23T17:02:19.609Z,96275.19
2022-12-23T17:04:22.220Z,96271.28
2022-12-23T17:06:25.523Z,96275.75
2022-12-23T17:08:28.082Z,96268.34
2022-12-23T17:10:30.723Z,96266.69
2022-12-23T17:12:33.342Z,96264.72
2022-12-23T17:14:35.927Z,96267.25
2022-12-23T17:16:41.006Z,96268.31
2022-12-23T17:18:43.635Z,96273.69
2022-12-23T17:20:47.510Z,96259.63
2022-12-23T17:22:53.762Z,96264.50
2022-12-23T17:24:56.383Z,96253.59
2022-12-23T17:26:59.510Z,96256.31
2022-12-23T17:29:03.421Z,96268.84
2022-12-23T17:31:13.810Z,96275.84
2022-12-23T17:33:22.348Z,96271.56
2022-12-23T17:35:25.838Z,96273.53
2022-12-23T17:37:31.127Z,96263.19
2022-12-23T17:39:33.723Z,96265.63
2022-12-23T17:41:39.062Z,96269.53
2022-12-23T17:43:41.709Z,96277.59
2022-12-23T17:45:45.473Z,96276.72
2022-12-23T17:47:48.175Z,96282.19
2022-12-23T17:49:52.727Z,96274.78
2022-12-23T17:51:55.428Z,96281.50
2022-12-23T17:53:59.242Z,96275.25
2022-12-23T17:56:01.832Z,96278.13
2022-12-23T17:58:04.422Z,96278.13
2022-12-23T18:00:08.369Z,96277.38
2022-12-23T18:02:21.548Z,96274.06
2022-12-23T18:04:24.123Z,96273.28
2022-12-23T18:06:29.589Z,96263.03
2022-12-23T18:08:32.157Z,96262.25
2022-12-23T18:10:37.774Z,96270.47
2022-12-23T18:12:42.512Z,96270.84
2022-12-23T18:14:45.401Z,96287.50
2022-12-23T18:16:48.161Z,96298.25
2022-12-23T18:18:51.523Z,96298.88
2022-12-23T18:20:56.719Z,96302.44
2022-12-23T18:23:01.772Z,96300.81
2022-12-23T18:25:04.956Z,96308.75
2022-12-23T18:27:14.081Z,96314.31
2022-12-23T18:29:16.666Z,96315.31
2022-12-23T18:31:21.381Z,96317.94
2022-12-23T18:33:28.612Z,96319.63
2022-12-23T18:35:33.850Z,96317.38
2022-12-23T18:37:36.376Z,96331.31
2022-12-23T18:39:40.295Z,96343.50
2022-12-23T18:41:42.861Z,96346.44
2022-12-23T18:43:46.558Z,96355.75
2022-12-23T18:45:53.304Z,96367.44
2022-12-23T18:47:56.430Z,96376.88
2022-12-23T18:49:58.986Z,96365.31
2022-12-23T18:52:01.867Z,96358.22
2022-12-23T18:54:04.543Z,96361.50
2022-12-23T18:56:13.105Z,96377.31
2022-12-23T18:58:17.916Z,96368.41
2022-12-23T19:00:22.764Z,96384.41
2022-12-23T19:02:25.408Z,96386.63
2022-12-23T19:04:28.395Z,96389.63
2022-12-23T19:06:30.975Z,96398.69
2022-12-23T19:08:35.269Z,96403.56
2022-12-23T19:10:37.849Z,96402.69
2022-12-23T19:12:41.780Z,96393.34
2022-12-23T19:14:44.501Z,96387.66
2022-12-23T19:16:51.581Z,96394.84
2022-12-23T19:18:55.279Z,96407.44
2022-12-23T19:20:57.842Z,96401.56
2022-12-23T19:23:00.431Z,96409.19
2022-12-23T19:25:06.260Z,96407.97
2022-12-23T19:27:09.229Z,96397.34
2022-12-23T19:29:13.381Z,96403.47
2022-12-23T19:31:17.555Z,96398.66
2022-12-23T19:33:20.186Z,96399.56
2022-12-23T19:35:22.836Z,96399.56
2022-12-23T19:37:25.477Z,96414.50
2022-12-23T19:39:28.137Z,96416.81
2022-12-23T19:41:30.769Z,96419.44
2022-12-23T19:43:33.450Z,96425.94
2022-12-23T19:45:37.346Z,96423.38
2022-12-23T19:47:39.972Z,96427.09
2022-12-23T19:49:42.511Z,96430.38
2022-12-23T19:51:45.179Z,96434.34
2022-12-23T19:53:51.882Z,96438.75
2022-12-23T19:55:59.262Z,96450.97
2022-12-23T19:58:02.010Z,96441.59
2022-12-23T20:00:05.634Z,96434.34
2022-12-23T20:02:13.892Z,96432.09
2022-12-23T20:04:17.000Z,96429.06
2022-12-23T20:06:21.751Z,96427.38
2022-12-23T20:08:24.392Z,96437.84
2022-12-23T20:10:26.932Z,96438.84
2022-12-23T20:12:29.467Z,96436.22
2022-12-23T20:14:34.282Z,96433.63
2022-12-23T20:16:37.893Z,96452.94
2022-12-23T20:18:41.858Z,96466.91
2022-12-23T20:20:44.738Z,96459.91
2022-12-23T20:22:47.367Z,96457.31
2022-12-23T20:24:50.978Z,96471.22
2022-12-23T20:26:53.571Z,96486.88
2022-12-23T20:28:56.275Z,96477.44
2022-12-23T20:31:07.449Z,96479.13
2022-12-23T20:33:10.591Z,96486.88
2022-12-23T20:35:14.724Z,96489.50
2022-12-23T20:37:17.578Z,96483.91
2022-12-23T20:39:20.202Z,96473.31
2022-12-23T20:41:24.350Z,96488.53
2022-12-23T20:43:26.898Z,96490.84
2022-12-23T20:45:29.478Z,96506.16
2022-12-23T20:47:32.038Z,96518.63
2022-12-23T20:49:34.668Z,96519.16
2022-12-23T20:51:38.577Z,96527.66
2022-12-23T20:53:41.677Z,96543.09
2022-12-23T20:55:44.322Z,96543.59
2022-12-23T20:57:46.902Z,96547.00
2022-12-23T20:59:49.500Z,96542.06
2022-12-23T21:01:52.265Z,96546.38
2022-12-23T21:03:56.334Z,96555.13
2022-12-23T21:05:58.923Z,96552.69
2022-12-23T21:08:02.847Z,96566.91
2022-12-23T21:10:06.014Z,96556.09
2022-12-23T21:12:08.841Z,96555.06
2022-12-23T21:14:12.002Z,96549.00
2022-12-23T21:16:14.899Z,96554.72
2022-12-23T21:18:17.929Z,96566.44
2022-12-23T21:20:20.490Z,96567.03
2022-12-23T21:22:23.074Z,96566.72
2022-12-23T21:24:27.145Z,96562.91
2022-12-23T21:26:31.374Z,96554.22
2022-12-23T21:28:34.045Z,96557.16
2022-12-23T21:30:36.649Z,96557.72
2022-12-23T21:32:39.325Z,96564.75
2022-12-23T21:34:41.938Z,96562.53
2022-12-23T21:36:45.477Z,96573.50
2022-12-23T21:38:48.943Z,96581.25
2022-12-23T21:40:59.482Z,96577.94
2022-12-23T21:43:08.299Z,96580.13
2022-12-23T21:45:11.711Z,96580.50
2022-12-23T21:47:14.781Z,96592.34
2022-12-23T21:49:17.609Z,96610.31
2022-12-23T21:51:22.641Z,96617.31
2022-12-23T21:53:25.378Z,96625.81
2022-12-23T21:55:27.973Z,96638.44
2022-12-23T21:57:31.972Z,96650.75
2022-12-23T21:59:35.441Z,96630.25
2022-12-23T22:01:38.591Z,96635.31
2022-12-23T22:03:42.487Z,96640.81
2022-12-23T22:05:45.075Z,96637.69
2022-12-23T22:07:47.652Z,96646.28
2022-12-23T22:09:51.253Z,96640.22
2022-12-23T22:11:53.821Z,96638.06
2022-12-23T22:13:59.453Z,96647.69
2022-12-23T22:16:02.171Z,96645.47
2022-12-23T22:18:04.998Z,96646.59
2022-12-23T22:20:08.771Z,96652.31
2022-12-23T22:22:11.354Z,96652.66
2022-12-23T22:24:13.977Z,96649.03
2022-12-23T22:26:24.634Z,96652.28
2022-12-23T22:28:28.466Z,96655.41
2022-12-23T22:30:32.672Z,96655.56
2022-12-23T22:32:40.590Z,96679.13
2022-12-23T22:34:44.944Z,96667.41
2022-12-23T22:36:48.199Z,96682.78
2022-12-23T22:38:53.386Z,96687.34
2022-12-23T22:40:56.019Z,96671.25
2022-12-23T22:42:58.594Z,96667.94
2022-12-23T22:45:01.392Z,96682.94
2022-12-23T22:47:05.491Z,96682.00
2022-12-23T22:49:08.124Z,96689.91
2022-12-23T22:51:15.643Z,96687.56
2022-12-23T22:53:18.279Z,96690.53
2022-12-23T22:55:20.861Z,96680.16
2022-12-23T22:57:23.488Z,96679.81
2022-12-23T22:59:26.486Z,96667.69
2022-12-23T23:01:31.532Z,96664.78
2022-12-23T23:03:35.529Z,96673.88
2022-12-23T23:05:38.133Z,96682.34
2022-12-23T23:07:40.773Z,96688.63
2022-12-23T23:09:43.738Z,96678.44
2022-12-23T23:11:46.401Z,96671.25
2022-12-23T23:13:48.994Z,96665.06
2022-12-23T23:15:51.588Z,96668.63
2022-12-23T23:17:54.124Z,96671.88
2022-12-23T23:19:58.085Z,96678.41
2022-12-23T23:22:01.049Z,96675.91
2022-12-23T23:24:03.724Z,96676.66
2022-12-23T23:26:08.636Z,96686.50
2022-12-23T23:28:11.752Z,96687.63
2022-12-23T23:30:14.569Z,96684.41
2022-12-23T23:32:17.228Z,96685.44
2022-12-23T23:34:19.955Z,96692.56
2022-12-23T23:36:23.932Z,96694.31
2022-12-23T23:38:28.289Z,96686.50
2022-12-23T23:40:31.096Z,96697.25
2022-12-23T23:42:34.409Z,96708.41
2022-12-23T23:44:37.004Z,96701.47
2022-12-23T23:46:40.121Z,96699.91
2022-12-23T23:48:42.726Z,96688.03
2022-12-23T23:50:45.936Z,96696.00
2022-12-23T23:52:50.041Z,96691.19
2022-12-23T23:54:52.822Z,96693.09
2022-12-23T23:56:55.404Z,96695.91
2022-12-23T23:58:57.996Z,96704.44
